createdAt,value
2023-10-28T00:00:18.486Z,90.82
2023-10-28T00:01:20.189Z,90.88
2023-10-28T00:02:21.806Z,94.49
2023-10-28T00:03:23.494Z,97.55
2023-10-28T00:04:25.115Z,99.85
2023-10-28T00:05:26.694Z,100.00
2023-10-28T00:06:29.673Z,100.00
2023-10-28T00:07:32.634Z,100.00
2023-10-28T00:08:34.434Z,100.00
2023-10-28T00:09:36.219Z,100.00
2023-10-28T00:10:37.996Z,100.00
2023-10-28T00:11:39.637Z,100.00
2023-10-28T00:12:41.526Z,100.00
2023-10-28T00:13:43.263Z,99.67
2023-10-28T00:14:44.859Z,98.62
2023-10-28T00:15:46.442Z,97.63
2023-10-28T00:16:48.058Z,97.74
2023-10-28T00:17:49.669Z,97.58
2023-10-28T00:18:52.520Z,96.71
2023-10-28T00:19:54.156Z,96.20
2023-10-28T00:20:55.732Z,96.55
2023-10-28T00:21:57.282Z,96.06
2023-10-28T00:23:00.586Z,95.21
2023-10-28T00:24:02.412Z,95.33
2023-10-28T00:25:04.656Z,95.64
2023-10-28T00:26:07.196Z,95.27
2023-10-28T00:27:08.811Z,94.54
2023-10-28T00:28:10.485Z,94.11
2023-10-28T00:29:12.099Z,94.08
2023-10-28T00:30:14.668Z,93.92
2023-10-28T00:31:18.658Z,93.51
2023-10-28T00:32:20.431Z,93.05
2023-10-28T00:33:22.018Z,92.61
2023-10-28T00:34:24.923Z,92.31
2023-10-28T00:35:28.179Z,92.54
2023-10-28T00:36:29.785Z,92.61
2023-10-28T00:37:31.409Z,92.11
2023-10-28T00:38:34.393Z,92.43
2023-10-28T00:39:36.074Z,92.00
2023-10-28T00:40:38.045Z,92.58
2023-10-28T00:41:39.798Z,92.51
2023-10-28T00:42:41.404Z,92.32
2023-10-28T00:43:43.022Z,91.80
2023-10-28T00:44:45.295Z,91.59
2023-10-28T00:45:46.962Z,91.47
2023-10-28T00:46:48.661Z,91.02
2023-10-28T00:47:50.409Z,91.21
2023-10-28T00:48:52.244Z,91.73
2023-10-28T00:49:54.226Z,91.59
2023-10-28T00:50:56.136Z,91.37
2023-10-28T00:51:58.472Z,91.51
2023-10-28T00:53:01.400Z,91.31
2023-10-28T00:54:04.628Z,91.24
2023-10-28T00:55:07.234Z,91.65
2023-10-28T00:56:10.187Z,91.34
2023-10-28T00:57:12.043Z,91.27
2023-10-28T00:58:13.663Z,91.06
2023-10-28T00:59:15.795Z,90.50
2023-10-28T01:00:17.783Z,90.70
2023-10-28T01:01:20.181Z,91.40
2023-10-28T01:02:21.898Z,91.14
2023-10-28T01:03:23.739Z,90.88
2023-10-28T01:04:25.365Z,91.34
2023-10-28T01:05:27.216Z,91.05
2023-10-28T01:06:29.524Z,91.24
2023-10-28T01:07:32.422Z,90.86
2023-10-28T01:08:34.040Z,90.37
2023-10-28T01:09:46.411Z,90.68
2023-10-28T01:10:48.094Z,91.11
2023-10-28T01:11:49.791Z,90.68
2023-10-28T01:12:51.416Z,91.44
2023-10-28T01:13:53.060Z,91.40
2023-10-28T01:14:54.770Z,91.25
2023-10-28T01:15:57.756Z,91.58
2023-10-28T01:16:59.400Z,92.21
2023-10-28T01:18:01.155Z,92.87
2023-10-28T01:19:02.815Z,92.45
2023-10-28T01:20:05.561Z,92.16
2023-10-28T01:21:12.174Z,92.32
2023-10-28T01:22:13.913Z,91.61
2023-10-28T01:23:15.521Z,91.61
2023-10-28T01:24:17.152Z,91.48
2023-10-28T01:25:18.962Z,91.65
2023-10-28T01:26:20.881Z,92.22
2023-10-28T01:27:22.480Z,92.03
2023-10-28T01:28:24.093Z,91.91
2023-10-28T01:29:25.735Z,91.17
2023-10-28T01:30:27.355Z,91.03
2023-10-28T01:31:29.004Z,90.55
2023-10-28T01:32:30.661Z,91.27
2023-10-28T01:33:32.225Z,91.56
2023-10-28T01:34:33.947Z,91.11
2023-10-28T01:35:35.574Z,90.52
2023-10-28T01:36:39.790Z,91.03
2023-10-28T01:37:41.639Z,91.15
2023-10-28T01:38:43.329Z,90.61
2023-10-28T01:39:45.392Z,90.45
2023-10-28T01:40:47.073Z,90.36
2023-10-28T01:41:48.665Z,89.99
2023-10-28T01:42:50.546Z,89.63
2023-10-28T01:43:52.226Z,89.78
2023-10-28T01:44:53.858Z,89.82
2023-10-28T01:45:55.477Z,89.82
2023-10-28T01:46:57.134Z,89.68
2023-10-28T01:47:58.857Z,89.17
2023-10-28T01:49:00.479Z,89.09
2023-10-28T01:50:02.112Z,89.61
2023-10-28T01:51:03.782Z,89.32
2023-10-28T01:52:07.193Z,89.73
2023-10-28T01:53:08.822Z,89.63
2023-10-28T01:54:10.430Z,89.98
2023-10-28T01:55:12.513Z,90.32
2023-10-28T01:56:16.568Z,89.91
2023-10-28T01:57:18.721Z,90.24
2023-10-28T01:58:20.402Z,90.04
2023-10-28T01:59:22.111Z,90.08
2023-10-28T02:00:23.808Z,90.39
2023-10-28T02:01:25.618Z,90.73
2023-10-28T02:02:27.312Z,91.50
2023-10-28T02:03:29.891Z,91.27
2023-10-28T02:04:32.240Z,90.65
2023-10-28T02:05:33.960Z,91.09
2023-10-28T02:06:35.548Z,91.09
2023-10-28T02:07:38.718Z,90.85
2023-10-28T02:08:40.539Z,90.47
2023-10-28T02:09:42.503Z,90.47
2023-10-28T02:10:44.166Z,90.04
2023-10-28T02:11:45.771Z,90.94
2023-10-28T02:12:48.751Z,90.79
2023-10-28T02:13:51.679Z,90.66
2023-10-28T02:14:53.340Z,90.54
2023-10-28T02:15:55.086Z,90.48
2023-10-28T02:16:56.794Z,90.60
2023-10-28T02:17:58.479Z,90.39
2023-10-28T02:19:00.714Z,90.64
2023-10-28T02:20:02.317Z,90.64
2023-10-28T02:21:04.010Z,90.75
2023-10-28T02:22:13.493Z,90.53
2023-10-28T02:23:18.505Z,90.85
2023-10-28T02:24:20.105Z,91.29
2023-10-28T02:25:21.707Z,91.75
2023-10-28T02:26:23.370Z,90.82
2023-10-28T02:27:24.945Z,91.08
2023-10-28T02:28:26.505Z,91.13
2023-10-28T02:29:28.138Z,91.33
2023-10-28T02:30:29.708Z,91.31
2023-10-28T02:31:31.363Z,91.18
2023-10-28T02:32:33.443Z,91.17
2023-10-28T02:33:35.130Z,91.06
2023-10-28T02:34:37.067Z,93.20
2023-10-28T02:35:38.748Z,93.73
2023-10-28T02:36:40.366Z,93.16
2023-10-28T02:37:41.961Z,93.14
2023-10-28T02:38:44.844Z,92.52
2023-10-28T02:39:46.677Z,93.43
2023-10-28T02:40:48.806Z,94.91
2023-10-28T02:41:50.413Z,95.41
2023-10-28T02:42:52.005Z,95.75
2023-10-28T02:43:53.672Z,95.98
2023-10-28T02:44:55.441Z,95.95
2023-10-28T02:45:57.094Z,95.36
2023-10-28T02:46:58.876Z,95.92
2023-10-28T02:48:00.537Z,96.27
2023-10-28T02:49:02.208Z,96.95
2023-10-28T02:50:04.253Z,97.02
2023-10-28T02:51:07.090Z,96.63
2023-10-28T02:52:09.912Z,96.15
2023-10-28T02:53:11.607Z,95.90
2023-10-28T02:54:14.581Z,95.60
2023-10-28T02:55:16.497Z,95.99
2023-10-28T02:56:18.223Z,96.14
2023-10-28T02:57:19.936Z,95.88
2023-10-28T02:58:21.489Z,96.57
2023-10-28T02:59:23.083Z,96.25
2023-10-28T03:00:24.635Z,96.78
2023-10-28T03:01:26.226Z,96.96
2023-10-28T03:02:27.951Z,97.30
2023-10-28T03:03:30.210Z,96.86
2023-10-28T03:04:31.901Z,96.71
2023-10-28T03:05:33.500Z,96.21
2023-10-28T03:06:35.247Z,96.00
2023-10-28T03:07:36.926Z,95.69
2023-10-28T03:08:38.632Z,96.99
2023-10-28T03:09:43.914Z,96.95
2023-10-28T03:10:45.551Z,96.30
2023-10-28T03:11:47.181Z,95.99
2023-10-28T03:12:48.837Z,96.00
2023-10-28T03:13:50.509Z,95.26
2023-10-28T03:14:53.267Z,95.46
2023-10-28T03:15:55.073Z,94.81
2023-10-28T03:16:56.803Z,96.51
2023-10-28T03:17:58.419Z,96.55
2023-10-28T03:19:00.022Z,96.32
2023-10-28T03:20:01.848Z,96.25
2023-10-28T03:21:03.754Z,95.41
2023-10-28T03:22:05.333Z,96.44
2023-10-28T03:23:06.988Z,96.75
2023-10-28T03:24:09.227Z,96.45
2023-10-28T03:25:12.157Z,95.20
2023-10-28T03:26:13.971Z,96.14
2023-10-28T03:27:15.613Z,96.76
2023-10-28T03:28:17.193Z,97.08
2023-10-28T03:29:18.813Z,96.19
2023-10-28T03:30:20.717Z,95.99
2023-10-28T03:31:25.226Z,96.56
2023-10-28T03:32:27.156Z,97.18
2023-10-28T03:33:28.872Z,96.55
2023-10-28T03:34:30.473Z,96.25
2023-10-28T03:35:32.295Z,95.91
2023-10-28T03:36:34.076Z,95.80
2023-10-28T03:37:35.831Z,97.99
2023-10-28T03:38:37.576Z,98.21
2023-10-28T03:39:39.169Z,98.12
2023-10-28T03:40:42.162Z,98.68
2023-10-28T03:41:43.914Z,97.35
2023-10-28T03:42:45.496Z,97.60
2023-10-28T03:43:47.146Z,97.95
2023-10-28T03:44:48.926Z,98.73
2023-10-28T03:45:50.738Z,98.85
2023-10-28T03:46:52.460Z,98.01
2023-10-28T03:47:54.090Z,97.31
2023-10-28T03:48:55.730Z,97.01
2023-10-28T03:49:57.353Z,97.17
2023-10-28T03:50:59.537Z,96.88
2023-10-28T03:52:01.262Z,96.48
2023-10-28T03:53:02.900Z,96.53
2023-10-28T03:54:05.247Z,95.56
2023-10-28T03:55:08.186Z,95.48
2023-10-28T03:56:11.143Z,95.39
2023-10-28T03:57:13.251Z,96.14
2023-10-28T03:58:14.940Z,95.79
2023-10-28T03:59:16.718Z,95.35
2023-10-28T04:00:18.616Z,97.24
2023-10-28T04:01:20.209Z,97.41
2023-10-28T04:02:21.842Z,96.85
2023-10-28T04:03:24.659Z,97.25
2023-10-28T04:04:26.249Z,97.17
2023-10-28T04:05:27.851Z,97.58
2023-10-28T04:06:29.514Z,98.41
2023-10-28T04:07:31.136Z,98.40
2023-10-28T04:08:32.755Z,98.36
2023-10-28T04:09:34.353Z,97.39
2023-10-28T04:10:36.026Z,98.12
2023-10-28T04:11:38.934Z,98.51
2023-10-28T04:12:40.720Z,98.41
2023-10-28T04:13:42.356Z,99.14
2023-10-28T04:14:44.053Z,100.00
2023-10-28T04:15:45.674Z,99.87
2023-10-28T04:16:47.308Z,100.00
2023-10-28T04:17:48.949Z,99.84
2023-10-28T04:18:50.703Z,100.00
2023-10-28T04:19:52.517Z,100.00
2023-10-28T04:20:54.178Z,100.00
2023-10-28T04:21:55.859Z,100.00
2023-10-28T04:22:57.433Z,100.00
2023-10-28T04:23:59.058Z,100.00
2023-10-28T04:25:00.705Z,100.00
2023-10-28T04:26:02.484Z,100.00
2023-10-28T04:27:05.595Z,100.00
2023-10-28T04:28:07.343Z,100.00
2023-10-28T04:29:09.050Z,100.00
2023-10-28T04:30:11.380Z,100.00
2023-10-28T04:31:12.990Z,100.00
2023-10-28T04:32:14.736Z,100.00
2023-10-28T04:33:16.478Z,100.00
2023-10-28T04:34:29.118Z,100.00
2023-10-28T04:35:34.543Z,100.00
2023-10-28T04:36:36.228Z,100.00
2023-10-28T04:37:37.866Z,99.81
2023-10-28T04:38:39.455Z,99.80
2023-10-28T04:39:41.092Z,100.00
2023-10-28T04:40:42.674Z,100.00
2023-10-28T04:41:44.300Z,100.00
2023-10-28T04:42:47.213Z,100.00
2023-10-28T04:43:48.954Z,100.00
2023-10-28T04:44:50.932Z,100.00
2023-10-28T04:45:53.560Z,100.00
2023-10-28T04:46:55.260Z,100.00
2023-10-28T04:47:56.914Z,100.00
2023-10-28T04:48:58.529Z,100.00
2023-10-28T04:50:00.156Z,100.00
2023-10-28T04:51:01.785Z,100.00
2023-10-28T04:52:04.016Z,100.00
2023-10-28T04:53:06.023Z,99.83
2023-10-28T04:54:07.792Z,100.00
2023-10-28T04:55:09.335Z,99.71
2023-10-28T04:56:10.978Z,99.21
2023-10-28T04:57:12.641Z,99.78
2023-10-28T04:58:15.566Z,100.00
2023-10-28T04:59:17.243Z,100.00
2023-10-28T05:00:19.035Z,100.00
2023-10-28T05:01:20.666Z,100.00
2023-10-28T05:02:22.290Z,100.00
2023-10-28T05:03:24.132Z,100.00
2023-10-28T05:04:25.922Z,100.00
2023-10-28T05:05:27.564Z,100.00
2023-10-28T05:06:29.122Z,100.00
2023-10-28T05:07:30.858Z,100.00
2023-10-28T05:08:32.512Z,100.00
2023-10-28T05:09:36.051Z,100.00
2023-10-28T05:10:37.631Z,100.00
2023-10-28T05:11:39.206Z,100.00
2023-10-28T05:12:41.609Z,100.00
2023-10-28T05:13:44.556Z,100.00
2023-10-28T05:14:46.170Z,100.00
2023-10-28T05:15:47.865Z,100.00
2023-10-28T05:16:49.883Z,100.00
2023-10-28T05:17:51.534Z,100.00
2023-10-28T05:18:53.170Z,100.00
2023-10-28T05:19:54.776Z,100.00
2023-10-28T05:20:56.431Z,100.00
2023-10-28T05:21:58.008Z,100.00
2023-10-28T05:22:59.662Z,100.00
2023-10-28T05:24:01.359Z,100.00
2023-10-28T05:25:03.703Z,100.00
2023-10-28T05:26:05.449Z,100.00
2023-10-28T05:27:07.025Z,100.00
2023-10-28T05:28:08.626Z,100.00
2023-10-28T05:29:11.588Z,100.00
2023-10-28T05:30:14.221Z,100.00
2023-10-28T05:31:15.896Z,100.00
2023-10-28T05:32:17.612Z,100.00
2023-10-28T05:33:19.427Z,100.00
2023-10-28T05:34:21.004Z,100.00
2023-10-28T05:35:22.834Z,100.00
2023-10-28T05:36:24.600Z,100.00
2023-10-28T05:37:26.198Z,100.00
2023-10-28T05:38:27.754Z,100.00
2023-10-28T05:39:29.625Z,100.00
2023-10-28T05:40:31.344Z,100.00
2023-10-28T05:41:32.943Z,100.00
2023-10-28T05:42:34.521Z,100.00
2023-10-28T05:43:36.185Z,100.00
2023-10-28T05:44:39.256Z,100.00
2023-10-28T05:45:40.905Z,100.00
2023-10-28T05:46:42.629Z,100.00
2023-10-28T05:47:44.199Z,100.00
2023-10-28T05:48:45.859Z,100.00
2023-10-28T05:49:47.752Z,100.00
2023-10-28T05:50:49.512Z,100.00
2023-10-28T05:51:51.225Z,100.00
2023-10-28T05:52:52.901Z,100.00
2023-10-28T05:53:54.592Z,100.00
2023-10-28T05:54:56.155Z,99.85
2023-10-28T05:55:57.780Z,100.00
2023-10-28T05:56:59.424Z,100.00
2023-10-28T05:58:01.085Z,100.00
2023-10-28T05:59:02.694Z,100.00
2023-10-28T06:00:07.202Z,100.00
2023-10-28T06:01:09.333Z,100.00
2023-10-28T06:02:11.041Z,100.00
2023-10-28T06:03:12.763Z,100.00
2023-10-28T06:04:14.569Z,100.00
2023-10-28T06:05:16.473Z,100.00
2023-10-28T06:06:18.148Z,100.00
2023-10-28T06:07:19.901Z,100.00
2023-10-28T06:08:21.687Z,100.00
2023-10-28T06:09:23.388Z,100.00
2023-10-28T06:10:25.088Z,100.00
2023-10-28T06:11:26.965Z,100.00
2023-10-28T06:12:28.786Z,100.00
2023-10-28T06:13:30.415Z,100.00
2023-10-28T06:14:32.028Z,100.00
2023-10-28T06:15:35.017Z,100.00
2023-10-28T06:16:36.658Z,100.00
2023-10-28T06:17:38.409Z,99.73
2023-10-28T06:18:40.062Z,99.48
2023-10-28T06:19:41.694Z,99.10
2023-10-28T06:20:43.966Z,99.14
2023-10-28T06:21:45.636Z,99.18
2023-10-28T06:22:47.457Z,99.59
2023-10-28T06:23:49.344Z,98.80
2023-10-28T06:24:50.971Z,99.13
2023-10-28T06:25:52.842Z,99.13
2023-10-28T06:26:54.539Z,100.00
2023-10-28T06:27:56.131Z,99.93
2023-10-28T06:28:57.784Z,100.00
2023-10-28T06:29:59.413Z,100.00
2023-10-28T06:31:02.404Z,100.00
2023-10-28T06:32:05.575Z,100.00
2023-10-28T06:33:07.390Z,100.00
2023-10-28T06:34:09.006Z,100.00
2023-10-28T06:35:10.694Z,100.00
2023-10-28T06:36:12.449Z,100.00
2023-10-28T06:37:14.257Z,100.00
2023-10-28T06:38:16.107Z,99.91
2023-10-28T06:39:17.746Z,100.00
2023-10-28T06:40:19.355Z,99.48
2023-10-28T06:41:20.986Z,99.61
2023-10-28T06:42:22.667Z,99.88
2023-10-28T06:43:24.405Z,100.00
2023-10-28T06:44:26.180Z,100.00
2023-10-28T06:45:28.030Z,100.00
2023-10-28T06:46:31.198Z,100.00
2023-10-28T06:47:33.904Z,100.00
2023-10-28T06:48:36.361Z,100.00
2023-10-28T06:49:38.126Z,100.00
2023-10-28T06:50:39.674Z,99.96
2023-10-28T06:51:41.316Z,100.00
2023-10-28T06:52:42.898Z,100.00
2023-10-28T06:53:44.565Z,99.82
2023-10-28T06:54:46.182Z,99.51
2023-10-28T06:55:47.799Z,99.87
2023-10-28T06:56:49.419Z,99.92
2023-10-28T06:57:51.030Z,100.00
2023-10-28T06:58:52.739Z,100.00
2023-10-28T06:59:54.526Z,100.00
2023-10-28T07:00:56.232Z,99.97
2023-10-28T07:01:59.394Z,99.43
2023-10-28T07:03:01.289Z,98.33
2023-10-28T07:04:03.190Z,97.98
2023-10-28T07:05:05.352Z,98.64
2023-10-28T07:06:08.226Z,98.65
2023-10-28T07:07:09.852Z,99.22
2023-10-28T07:08:11.503Z,98.55
2023-10-28T07:09:13.309Z,98.51
2023-10-28T07:10:14.948Z,99.01
2023-10-28T07:11:16.528Z,100.00
2023-10-28T07:12:18.170Z,100.00
2023-10-28T07:13:19.800Z,99.79
2023-10-28T07:14:21.485Z,99.10
2023-10-28T07:15:23.255Z,98.28
2023-10-28T07:16:25.127Z,98.42
2023-10-28T07:17:28.521Z,98.35
2023-10-28T07:18:30.308Z,98.17
2023-10-28T07:19:33.308Z,97.44
2023-10-28T07:20:35.261Z,97.62
2023-10-28T07:21:39.207Z,99.15
2023-10-28T07:22:40.864Z,99.57
2023-10-28T07:23:42.473Z,99.64
2023-10-28T07:24:44.233Z,99.28
2023-10-28T07:25:46.053Z,99.71
2023-10-28T07:26:47.723Z,99.03
2023-10-28T07:27:49.354Z,98.85
2023-10-28T07:28:51.132Z,98.61
2023-10-28T07:29:52.729Z,98.45
2023-10-28T07:30:54.457Z,97.88
2023-10-28T07:31:57.539Z,96.94
2023-10-28T07:33:00.503Z,97.32
2023-10-28T07:34:02.107Z,97.50
2023-10-28T07:35:04.168Z,97.86
2023-10-28T07:36:06.921Z,97.44
2023-10-28T07:37:09.872Z,98.00
2023-10-28T07:38:11.954Z,98.75
2023-10-28T07:39:16.975Z,99.34
2023-10-28T07:40:22.010Z,100.00
2023-10-28T07:41:23.782Z,99.70
2023-10-28T07:42:25.513Z,98.95
2023-10-28T07:43:27.203Z,98.22
2023-10-28T07:44:29.614Z,97.69
2023-10-28T07:45:31.377Z,98.71
2023-10-28T07:46:33.014Z,98.00
2023-10-28T07:47:34.640Z,98.98
2023-10-28T07:48:37.694Z,99.00
2023-10-28T07:49:39.249Z,98.01
2023-10-28T07:50:42.237Z,97.23
2023-10-28T07:51:43.925Z,96.90
2023-10-28T07:52:45.539Z,97.18
2023-10-28T07:53:47.151Z,97.31
2023-10-28T07:54:48.811Z,97.54
2023-10-28T07:55:50.542Z,97.42
2023-10-28T07:56:52.237Z,97.53
2023-10-28T07:57:53.844Z,98.24
2023-10-28T07:58:55.540Z,97.71
2023-10-28T07:59:57.270Z,96.99
2023-10-28T08:01:01.477Z,97.88
2023-10-28T08:02:03.470Z,97.61
2023-10-28T08:03:05.292Z,96.91
2023-10-28T08:04:08.397Z,96.72
2023-10-28T08:05:10.091Z,97.09
2023-10-28T08:06:20.303Z,97.95
2023-10-28T08:07:30.175Z,97.77
2023-10-28T08:08:31.791Z,97.80
2023-10-28T08:09:34.794Z,97.30
2023-10-28T08:10:39.327Z,97.87
2023-10-28T08:11:40.897Z,98.16
2023-10-28T08:12:42.549Z,97.60
2023-10-28T08:13:44.483Z,97.45
2023-10-28T08:14:47.169Z,96.69
2023-10-28T08:15:48.811Z,96.86
2023-10-28T08:16:50.447Z,97.24
2023-10-28T08:17:52.274Z,97.00
2023-10-28T08:18:54.112Z,96.08
2023-10-28T08:19:57.075Z,96.29
2023-10-28T08:20:58.664Z,96.89
2023-10-28T08:22:00.243Z,97.29
2023-10-28T08:23:01.837Z,97.63
2023-10-28T08:24:03.866Z,97.62
2023-10-28T08:25:09.210Z,96.82
2023-10-28T08:26:11.511Z,97.09
2023-10-28T08:27:13.471Z,97.23
2023-10-28T08:28:16.710Z,96.97
2023-10-28T08:29:18.640Z,98.22
2023-10-28T08:30:23.154Z,98.25
2023-10-28T08:31:25.289Z,97.53
2023-10-28T08:32:26.931Z,98.17
2023-10-28T08:33:28.655Z,99.01
2023-10-28T08:34:30.298Z,97.99
2023-10-28T08:35:44.387Z,98.00
2023-10-28T08:36:46.006Z,97.71
2023-10-28T08:37:48.204Z,97.18
2023-10-28T08:38:49.760Z,96.38
2023-10-28T08:39:51.408Z,96.22
2023-10-28T08:40:55.315Z,96.09
2023-10-28T08:41:59.131Z,95.25
2023-10-28T08:43:00.696Z,94.85
2023-10-28T08:44:03.086Z,93.96
2023-10-28T08:45:09.415Z,93.05
2023-10-28T08:46:13.497Z,93.31
2023-10-28T08:47:16.782Z,92.39
2023-10-28T08:48:19.026Z,91.98
2023-10-28T08:49:24.735Z,91.09
2023-10-28T08:50:33.489Z,91.76
2023-10-28T08:51:39.780Z,92.44
2023-10-28T08:52:42.343Z,91.92
2023-10-28T08:53:46.204Z,92.17
2023-10-28T08:54:50.015Z,93.77
2023-10-28T08:55:54.259Z,95.62
2023-10-28T08:56:56.898Z,95.27
2023-10-28T08:58:02.055Z,94.39
2023-10-28T08:59:03.730Z,93.17
2023-10-28T09:00:08.174Z,93.00
2023-10-28T09:01:10.085Z,93.70
2023-10-28T09:02:13.150Z,93.40
2023-10-28T09:03:15.389Z,93.58
2023-10-28T09:04:17.164Z,93.38
2023-10-28T09:05:18.752Z,94.15
2023-10-28T09:06:20.447Z,94.16
2023-10-28T09:07:23.607Z,93.94
2023-10-28T09:08:25.335Z,92.86
2023-10-28T09:09:28.652Z,92.46
2023-10-28T09:10:30.252Z,92.76
2023-10-28T09:11:31.884Z,92.05
2023-10-28T09:12:34.372Z,91.20
2023-10-28T09:13:36.119Z,90.97
2023-10-28T09:14:37.683Z,91.29
2023-10-28T09:15:39.390Z,92.09
2023-10-28T09:16:41.437Z,91.01
2023-10-28T09:17:44.597Z,90.21
2023-10-28T09:18:46.279Z,90.43
2023-10-28T09:19:48.110Z,88.71
2023-10-28T09:20:52.763Z,90.43
2023-10-28T09:21:56.269Z,90.87
2023-10-28T09:22:59.270Z,90.98
2023-10-28T09:24:01.658Z,89.78
2023-10-28T09:25:04.272Z,90.59
2023-10-28T09:26:06.610Z,88.58
2023-10-28T09:27:11.176Z,90.13
2023-10-28T09:28:16.255Z,90.65
2023-10-28T09:29:28.128Z,90.66
2023-10-28T09:30:29.951Z,90.29
2023-10-28T09:31:31.568Z,90.77
2023-10-28T09:32:33.835Z,90.01
2023-10-28T09:33:35.750Z,90.22
2023-10-28T09:34:38.157Z,89.88
2023-10-28T09:35:40.959Z,89.58
2023-10-28T09:36:42.599Z,89.91
2023-10-28T09:37:44.212Z,89.21
2023-10-28T09:38:48.044Z,88.73
2023-10-28T09:39:50.408Z,88.73
2023-10-28T09:40:52.700Z,87.44
2023-10-28T09:41:54.947Z,86.44
2023-10-28T09:42:56.751Z,86.67
2023-10-28T09:44:01.501Z,87.01
2023-10-28T09:45:05.088Z,87.18
2023-10-28T09:46:08.197Z,88.03
2023-10-28T09:47:18.707Z,86.15
2023-10-28T09:48:21.524Z,85.07
2023-10-28T09:49:26.403Z,83.45
2023-10-28T09:50:32.608Z,86.57
2023-10-28T09:51:38.323Z,86.79
2023-10-28T09:52:43.240Z,88.44
2023-10-28T09:53:51.321Z,88.67
2023-10-28T09:55:05.109Z,88.57
2023-10-28T09:56:07.364Z,87.33
2023-10-28T09:57:09.547Z,88.32
2023-10-28T09:58:17.606Z,89.10
2023-10-28T09:59:22.190Z,89.94
2023-10-28T10:00:27.833Z,90.01
2023-10-28T10:01:38.652Z,90.85
2023-10-28T10:02:56.677Z,90.91
2023-10-28T10:04:09.448Z,88.34
2023-10-28T10:05:18.017Z,89.30
2023-10-28T10:06:20.354Z,89.70
2023-10-28T10:07:22.486Z,90.48
2023-10-28T10:08:25.039Z,89.92
2023-10-28T10:09:28.104Z,91.77
2023-10-28T10:10:30.140Z,92.02
2023-10-28T10:11:31.777Z,91.35
2023-10-28T10:12:35.596Z,92.08
2023-10-28T10:13:43.311Z,91.59
2023-10-28T10:14:46.568Z,90.86
2023-10-28T10:15:55.746Z,91.85
2023-10-28T10:17:04.735Z,91.30
2023-10-28T10:18:18.205Z,90.20
2023-10-28T10:19:24.766Z,90.48
2023-10-28T10:20:26.993Z,91.21
2023-10-28T10:21:35.150Z,90.52
2023-10-28T10:22:39.424Z,90.51
2023-10-28T10:23:44.625Z,89.43
2023-10-28T10:24:51.480Z,87.60
2023-10-28T10:25:55.727Z,88.47
2023-10-28T10:27:00.107Z,88.91
2023-10-28T10:28:12.657Z,89.69
2023-10-28T10:29:14.270Z,89.18
2023-10-28T10:30:15.882Z,89.44
2023-10-28T10:31:18.937Z,88.94
2023-10-28T10:32:20.640Z,89.47
2023-10-28T10:33:25.493Z,88.48
2023-10-28T10:34:34.380Z,88.37
2023-10-28T10:35:37.472Z,87.61
2023-10-28T10:36:40.214Z,89.19
2023-10-28T10:37:44.088Z,88.81
2023-10-28T10:38:46.511Z,88.39
2023-10-28T10:39:48.276Z,89.16
2023-10-28T10:40:53.828Z,88.65
2023-10-28T10:42:00.440Z,88.44
2023-10-28T10:43:09.789Z,88.44
2023-10-28T10:44:21.527Z,88.91
2023-10-28T10:45:23.526Z,88.42
2023-10-28T10:46:25.244Z,87.32
2023-10-28T10:47:27.448Z,88.04
2023-10-28T10:48:29.170Z,88.97
2023-10-28T10:49:31.978Z,88.87
2023-10-28T10:50:33.660Z,88.14
2023-10-28T10:51:35.752Z,86.90
2023-10-28T10:52:40.540Z,87.27
2023-10-28T10:53:42.870Z,86.75
2023-10-28T10:54:44.439Z,87.20
2023-10-28T10:55:48.270Z,85.46
2023-10-28T10:56:51.193Z,85.26
2023-10-28T10:57:52.825Z,85.72
2023-10-28T10:58:54.546Z,83.89
2023-10-28T10:59:56.263Z,82.80
2023-10-28T11:00:58.599Z,83.70
2023-10-28T11:02:01.834Z,84.24
2023-10-28T11:03:06.685Z,83.33
2023-10-28T11:04:08.907Z,85.19
2023-10-28T11:05:10.561Z,87.35
2023-10-28T11:06:12.353Z,87.81
2023-10-28T11:07:13.963Z,87.42
2023-10-28T11:08:15.719Z,85.29
2023-10-28T11:09:17.962Z,85.36
2023-10-28T11:10:21.159Z,84.51
2023-10-28T11:11:22.824Z,85.46
2023-10-28T11:12:25.783Z,84.99
2023-10-28T11:13:27.398Z,85.22
2023-10-28T11:14:29.283Z,85.50
2023-10-28T11:15:32.926Z,84.42
2023-10-28T11:16:35.212Z,84.63
2023-10-28T11:17:36.983Z,84.42
2023-10-28T11:18:38.663Z,85.10
2023-10-28T11:19:48.166Z,85.89
2023-10-28T11:20:49.915Z,85.49
2023-10-28T11:21:51.661Z,84.87
2023-10-28T11:22:53.342Z,84.86
2023-10-28T11:23:55.583Z,84.82
2023-10-28T11:24:57.594Z,85.20
2023-10-28T11:26:03.812Z,84.00
2023-10-28T11:27:05.400Z,84.51
2023-10-28T11:28:09.407Z,83.50
2023-10-28T11:29:11.052Z,83.69
2023-10-28T11:30:13.238Z,84.48
2023-10-28T11:31:14.912Z,86.42
2023-10-28T11:32:16.545Z,86.35
2023-10-28T11:33:18.274Z,87.61
2023-10-28T11:34:20.078Z,86.55
2023-10-28T11:35:21.688Z,87.58
2023-10-28T11:36:23.616Z,86.41
2023-10-28T11:37:25.353Z,86.59
2023-10-28T11:38:27.030Z,86.39
2023-10-28T11:39:28.666Z,86.28
2023-10-28T11:40:30.331Z,85.47
2023-10-28T11:41:32.111Z,85.49
2023-10-28T11:42:34.944Z,85.37
2023-10-28T11:43:38.435Z,84.91
2023-10-28T11:44:41.783Z,84.31
2023-10-28T11:45:43.738Z,83.11
2023-10-28T11:46:45.721Z,83.09
2023-10-28T11:47:47.445Z,81.60
2023-10-28T11:48:49.032Z,81.82
2023-10-28T11:49:50.611Z,82.05
2023-10-28T11:50:52.318Z,82.86
2023-10-28T11:51:53.888Z,83.08
2023-10-28T11:52:55.584Z,82.89
2023-10-28T11:53:57.235Z,83.03
2023-10-28T11:54:58.769Z,84.16
2023-10-28T11:56:00.388Z,83.07
2023-10-28T11:57:02.133Z,83.27
2023-10-28T11:58:03.753Z,83.05
2023-10-28T11:59:06.747Z,81.95
2023-10-28T12:00:09.440Z,83.24
2023-10-28T12:01:11.387Z,84.36
2023-10-28T12:02:13.551Z,82.82
2023-10-28T12:03:15.220Z,83.77
2023-10-28T12:04:17.140Z,85.70
2023-10-28T12:05:18.823Z,86.25
2023-10-28T12:06:29.580Z,86.61
2023-10-28T12:07:34.546Z,86.64
2023-10-28T12:08:36.132Z,86.62
2023-10-28T12:09:37.716Z,85.78
2023-10-28T12:10:39.628Z,85.15
2023-10-28T12:11:41.967Z,86.13
2023-10-28T12:12:43.545Z,85.46
2023-10-28T12:13:45.158Z,85.51
2023-10-28T12:14:48.858Z,86.93
2023-10-28T12:15:50.448Z,86.57
2023-10-28T12:16:51.996Z,87.90
2023-10-28T12:17:53.612Z,87.76
2023-10-28T12:18:55.215Z,88.00
2023-10-28T12:19:56.865Z,88.07
2023-10-28T12:20:58.501Z,87.57
2023-10-28T12:22:00.111Z,89.47
2023-10-28T12:23:02.039Z,87.33
2023-10-28T12:24:04.060Z,87.66
2023-10-28T12:25:06.671Z,88.42
2023-10-28T12:26:08.486Z,85.16
2023-10-28T12:27:10.323Z,85.56
2023-10-28T12:28:11.859Z,86.77
2023-10-28T12:29:13.749Z,87.25
2023-10-28T12:30:17.109Z,86.39
2023-10-28T12:31:18.729Z,85.87
2023-10-28T12:32:20.394Z,85.42
2023-10-28T12:33:22.052Z,83.88
2023-10-28T12:34:23.678Z,82.59
2023-10-28T12:35:25.409Z,83.06
2023-10-28T12:36:27.038Z,83.12
2023-10-28T12:37:28.717Z,82.92
2023-10-28T12:38:30.344Z,85.49
2023-10-28T12:39:31.972Z,85.75
2023-10-28T12:40:33.662Z,81.99
2023-10-28T12:41:35.228Z,84.61
2023-10-28T12:42:36.970Z,85.40
2023-10-28T12:43:38.779Z,80.94
2023-10-28T12:44:40.365Z,83.82
2023-10-28T12:45:43.259Z,82.92
2023-10-28T12:46:44.837Z,83.04
2023-10-28T12:47:46.432Z,83.86
2023-10-28T12:48:48.078Z,83.82
2023-10-28T12:49:49.640Z,82.77
2023-10-28T12:50:51.238Z,83.92
2023-10-28T12:51:52.916Z,82.08
2023-10-28T12:52:54.772Z,81.29
2023-10-28T12:53:56.409Z,80.96
2023-10-28T12:55:00.871Z,83.12
2023-10-28T12:56:02.622Z,84.06
2023-10-28T12:57:04.701Z,83.69
2023-10-28T12:58:06.253Z,81.79
2023-10-28T12:59:07.922Z,83.04
2023-10-28T13:00:10.609Z,84.19
2023-10-28T13:01:13.621Z,86.34
2023-10-28T13:02:15.298Z,85.42
2023-10-28T13:03:16.972Z,86.12
2023-10-28T13:04:19.950Z,85.82
2023-10-28T13:05:23.676Z,86.86
2023-10-28T13:06:25.999Z,84.46
2023-10-28T13:07:27.625Z,84.32
2023-10-28T13:08:29.299Z,84.03
2023-10-28T13:09:31.021Z,84.98
2023-10-28T13:10:32.588Z,85.55
2023-10-28T13:11:34.318Z,85.59
2023-10-28T13:12:36.030Z,85.03
2023-10-28T13:13:38.317Z,85.27
2023-10-28T13:14:39.950Z,85.14
2023-10-28T13:15:43.135Z,84.26
2023-10-28T13:16:46.105Z,83.85
2023-10-28T13:17:47.836Z,82.19
2023-10-28T13:18:49.889Z,83.83
2023-10-28T13:19:51.527Z,82.26